createdAt,value
2018-08-31T00:02:26.699Z,27.10
2018-08-31T00:06:08.220Z,27.00
2018-08-31T00:10:53.079Z,26.80
2018-08-31T00:13:21.549Z,27.00
2018-08-31T00:15:49.363Z,27.30
2018-08-31T00:18:17.232Z,27.50
2018-08-31T00:20:45.562Z,27.60
2018-08-31T00:23:13.247Z,27.70
2018-08-31T00:26:12.558Z,27.80
2018-08-31T00:29:06.572Z,27.80
2018-08-31T00:33:53.731Z,28.10
2018-08-31T00:36:33.457Z,28.70
2018-08-31T00:41:19.175Z,28.30
2018-08-31T00:45:54.381Z,28.40
2018-08-31T00:48:23.377Z,28.80
2018-08-31T00:50:51.292Z,29.10
2018-08-31T00:53:19.028Z,28.90
2018-08-31T00:55:46.762Z,29.30
2018-08-31T00:58:14.639Z,28.90
2018-08-31T01:00:44.061Z,29.10
2018-08-31T01:03:13.314Z,29.10
2018-08-31T01:05:41.996Z,29.10
2018-08-31T01:08:11.050Z,29.30
2018-08-31T01:10:38.885Z,29.30
2018-08-31T01:13:06.913Z,29.60
2018-08-31T01:15:34.726Z,29.60
2018-08-31T01:18:03.633Z,29.70
2018-08-31T01:20:31.400Z,29.70
2018-08-31T01:22:59.194Z,29.90
2018-08-31T01:25:27.094Z,30.50
2018-08-31T01:27:55.624Z,30.20
2018-08-31T01:30:23.505Z,30.00
2018-08-31T01:32:51.247Z,30.30
2018-08-31T01:35:19.097Z,30.40
2018-08-31T01:37:47.357Z,30.50
2018-08-31T01:40:15.063Z,30.40
2018-08-31T01:42:42.779Z,30.30
2018-08-31T01:45:10.497Z,30.30
2018-08-31T01:47:38.552Z,30.30
2018-08-31T01:50:06.849Z,30.40
2018-08-31T01:52:34.600Z,30.40
2018-08-31T01:55:03.459Z,30.40
2018-08-31T01:57:31.210Z,30.80
2018-08-31T01:59:59.238Z,31.30
2018-08-31T02:02:27.178Z,31.20
2018-08-31T02:04:55.054Z,31.90
2018-08-31T02:07:23.184Z,31.90
2018-08-31T02:09:50.842Z,31.90
2018-08-31T02:12:18.623Z,31.80
2018-08-31T02:14:46.555Z,32.20
2018-08-31T02:17:14.265Z,32.00
2018-08-31T02:19:42.167Z,31.80
2018-08-31T02:22:09.933Z,31.90
2018-08-31T02:24:37.951Z,32.00
2018-08-31T02:27:05.722Z,32.30
2018-08-31T02:29:33.406Z,32.30
2018-08-31T02:32:01.368Z,32.20
2018-08-31T02:34:29.064Z,32.40
2018-08-31T02:36:56.786Z,32.20
2018-08-31T02:39:26.091Z,32.50
2018-08-31T02:41:53.996Z,32.40
2018-08-31T02:44:21.767Z,32.60
2018-08-31T02:46:55.210Z,32.80
2018-08-31T02:49:25.580Z,33.10
2018-08-31T02:51:53.337Z,33.20
2018-08-31T02:54:21.481Z,33.50
2018-08-31T02:56:50.014Z,33.50
2018-08-31T02:59:18.072Z,33.60
2018-08-31T03:01:46.890Z,33.80
2018-08-31T03:04:15.252Z,33.80
2018-08-31T03:06:43.045Z,34.30
2018-08-31T03:09:10.975Z,34.40
2018-08-31T03:11:38.885Z,34.10
2018-08-31T03:14:06.583Z,34.40
2018-08-31T03:16:34.923Z,34.60
2018-08-31T03:19:02.941Z,34.40
2018-08-31T03:21:31.658Z,34.40
2018-08-31T03:23:59.380Z,34.20
2018-08-31T03:26:27.209Z,34.20
2018-08-31T03:28:55.063Z,34.50
2018-08-31T03:31:24.096Z,34.50
2018-08-31T03:33:51.932Z,34.50
2018-08-31T03:36:19.616Z,34.30
2018-08-31T03:38:47.291Z,34.50
2018-08-31T03:41:15.095Z,34.50
2018-08-31T03:43:42.847Z,34.90
2018-08-31T03:46:10.767Z,34.60
2018-08-31T03:48:40.701Z,34.50
2018-08-31T03:51:08.488Z,34.70
2018-08-31T03:53:36.308Z,34.70
2018-08-31T03:56:04.226Z,34.60
2018-08-31T03:58:31.966Z,34.80
2018-08-31T04:01:00.640Z,35.20
2018-08-31T04:03:33.508Z,35.50
2018-08-31T04:09:03.313Z,35.50
2018-08-31T04:11:31.108Z,35.50
2018-08-31T04:14:01.365Z,35.50
2018-08-31T04:16:29.666Z,35.50
2018-08-31T04:19:02.018Z,35.40
2018-08-31T04:21:31.264Z,35.50
2018-08-31T04:23:59.562Z,35.70
2018-08-31T04:26:27.300Z,35.70
2018-08-31T04:28:55.142Z,35.60
2018-08-31T04:31:22.941Z,35.60
2018-08-31T04:33:50.765Z,35.70
2018-08-31T04:36:26.372Z,35.70
2018-08-31T04:38:54.551Z,35.70
2018-08-31T04:41:22.704Z,35.90
2018-08-31T04:43:50.931Z,35.90
2018-08-31T04:46:19.236Z,35.90
2018-08-31T04:48:47.681Z,36.20
2018-08-31T04:51:15.582Z,36.00
2018-08-31T04:53:43.294Z,36.10
2018-08-31T04:56:12.004Z,36.20
2018-08-31T04:58:40.083Z,36.20
2018-08-31T05:01:08.933Z,36.50
2018-08-31T05:03:41.351Z,36.80
2018-08-31T05:06:09.054Z,36.80
2018-08-31T05:08:46.163Z,37.10
2018-08-31T05:14:04.443Z,37.40
2018-08-31T05:16:32.464Z,37.40
2018-08-31T05:19:00.644Z,37.50
2018-08-31T05:21:29.181Z,38.00
2018-08-31T05:23:58.008Z,37.80
2018-08-31T05:26:26.275Z,37.70
2018-08-31T05:29:04.461Z,38.50
2018-08-31T05:31:34.226Z,38.30
2018-08-31T05:34:03.349Z,38.80
2018-08-31T05:36:34.010Z,38.80
2018-08-31T05:39:02.422Z,39.40
2018-08-31T05:41:30.203Z,39.40
2018-08-31T05:43:59.027Z,38.80
2018-08-31T05:46:39.943Z,38.70
2018-08-31T05:49:08.236Z,38.50
2018-08-31T05:55:01.293Z,38.30
2018-08-31T05:57:33.870Z,38.80
2018-08-31T06:00:12.732Z,38.70
2018-08-31T06:02:42.073Z,38.70
2018-08-31T06:05:13.537Z,38.50
2018-08-31T06:07:45.814Z,38.40
2018-08-31T06:10:23.511Z,39.00
2018-08-31T06:12:52.488Z,39.50
2018-08-31T06:15:31.333Z,39.50
2018-08-31T06:18:00.733Z,39.40
2018-08-31T06:20:32.054Z,39.80
2018-08-31T06:26:26.481Z,39.60
2018-08-31T06:29:04.447Z,39.60
2018-08-31T06:31:32.296Z,39.80
2018-08-31T06:34:04.056Z,39.40
2018-08-31T06:36:33.621Z,39.60
2018-08-31T06:39:02.099Z,40.40
2018-08-31T06:41:30.243Z,40.70
2018-08-31T06:44:01.055Z,40.30
2018-08-31T06:46:30.473Z,39.60
2018-08-31T06:48:59.296Z,39.50
2018-08-31T06:51:28.487Z,39.50
2018-08-31T06:53:56.682Z,39.60
2018-08-31T06:56:24.906Z,39.50
2018-08-31T06:58:54.778Z,39.60
2018-08-31T07:01:25.846Z,39.70
2018-08-31T07:03:59.835Z,39.70
2018-08-31T07:06:38.005Z,39.90
2018-08-31T07:09:20.998Z,39.10
2018-08-31T07:11:50.772Z,39.70
2018-08-31T07:14:20.753Z,39.20
2018-08-31T07:16:49.380Z,39.30
2018-08-31T07:19:17.335Z,38.90
2018-08-31T07:21:54.318Z,39.10
2018-08-31T07:24:32.078Z,39.00
2018-08-31T07:27:00.778Z,40.70
2018-08-31T07:29:30.806Z,39.70
2018-08-31T07:32:01.549Z,39.80
2018-08-31T07:34:30.444Z,39.50
2018-08-31T07:37:00.536Z,39.80
2018-08-31T07:39:28.493Z,40.00
2018-08-31T07:42:00.106Z,39.40
2018-08-31T07:44:29.857Z,40.00
2018-08-31T07:47:00.877Z,39.40
2018-08-31T07:49:28.955Z,39.00
2018-08-31T07:51:57.277Z,38.60
2018-08-31T07:54:25.565Z,38.90
2018-08-31T07:56:53.229Z,38.80
2018-08-31T07:59:26.063Z,39.40
2018-08-31T08:01:55.181Z,39.00
2018-08-31T08:04:23.146Z,39.10
2018-08-31T08:06:51.759Z,38.70
2018-08-31T08:09:29.251Z,38.20
2018-08-31T08:12:09.958Z,38.60
2018-08-31T08:14:42.774Z,38.10
2018-08-31T08:17:10.742Z,37.70
2018-08-31T08:19:44.752Z,38.40
2018-08-31T08:22:13.204Z,38.20
2018-08-31T08:59:26.488Z,38.00
2018-08-31T09:01:54.422Z,36.50
2018-08-31T09:04:23.287Z,36.30
2018-08-31T09:06:50.888Z,36.10
2018-08-31T09:09:20.027Z,35.80
2018-08-31T09:11:49.167Z,36.20
2018-08-31T09:14:31.603Z,36.00
2018-08-31T09:17:03.185Z,36.00
2018-08-31T09:19:47.336Z,35.70
2018-08-31T09:22:16.181Z,34.90
2018-08-31T09:24:43.961Z,34.40
2018-08-31T09:27:21.455Z,34.00
2018-08-31T09:31:06.361Z,34.90
2018-08-31T09:39:01.402Z,34.60
2018-08-31T09:41:32.958Z,34.30
2018-08-31T09:44:00.773Z,33.90
2018-08-31T09:46:33.293Z,34.00
2018-08-31T09:49:01.203Z,33.80
2018-08-31T09:51:29.099Z,32.80
2018-08-31T09:53:56.965Z,32.60
2018-08-31T09:56:24.691Z,33.00
2018-08-31T09:59:01.656Z,32.70
2018-08-31T10:04:12.427Z,31.30
2018-08-31T10:06:40.154Z,31.40
2018-08-31T10:09:08.787Z,32.30
2018-08-31T10:11:41.327Z,31.50
2018-08-31T10:14:09.044Z,31.60
2018-08-31T10:16:37.076Z,31.60
2018-08-31T10:19:05.377Z,30.10
2018-08-31T10:21:33.532Z,29.70
2018-08-31T10:24:01.972Z,30.30
2018-08-31T10:26:30.721Z,30.10
2018-08-31T10:28:58.604Z,30.10
2018-08-31T10:31:26.310Z,29.60
2018-08-31T10:33:54.105Z,29.90
2018-08-31T10:36:22.102Z,30.00
2018-08-31T10:38:50.109Z,29.30
2018-08-31T10:41:19.284Z,29.50
2018-08-31T10:43:47.286Z,29.70
2018-08-31T10:46:17.055Z,29.30
2018-08-31T10:48:46.279Z,29.50
2018-08-31T10:51:26.519Z,29.60
2018-08-31T10:53:54.332Z,29.00
2018-08-31T10:56:22.832Z,29.30
2018-08-31T10:58:50.729Z,29.40
2018-08-31T11:01:20.491Z,29.10
2018-08-31T11:03:48.172Z,28.70
2018-08-31T11:06:16.092Z,28.90
2018-08-31T11:08:44.142Z,28.70
2018-08-31T11:14:15.139Z,28.90
2018-08-31T11:16:42.934Z,28.90
2018-08-31T11:19:15.603Z,28.30
2018-08-31T11:21:44.349Z,27.90
2018-08-31T11:24:12.435Z,27.80
2018-08-31T11:26:41.176Z,27.10
2018-08-31T11:29:09.032Z,27.70
2018-08-31T11:31:38.074Z,27.30
2018-08-31T11:34:05.917Z,27.10
2018-08-31T11:36:34.003Z,26.70
2018-08-31T11:39:07.626Z,26.30
2018-08-31T11:41:42.284Z,26.10
2018-08-31T11:44:10.177Z,26.20
2018-08-31T11:46:39.799Z,26.70
2018-08-31T11:49:08.009Z,26.30
2018-08-31T11:51:38.158Z,25.70
2018-08-31T11:54:05.898Z,26.50
2018-08-31T11:56:33.723Z,26.30
2018-08-31T11:59:01.559Z,25.40
2018-08-31T12:01:29.911Z,25.50
2018-08-31T12:03:59.308Z,25.00
2018-08-31T12:06:28.053Z,25.60
2018-08-31T12:08:58.891Z,24.40
2018-08-31T12:11:35.512Z,23.00
2018-08-31T12:14:03.761Z,23.30
2018-08-31T12:16:31.783Z,23.20
2018-08-31T12:18:59.636Z,22.00
2018-08-31T12:21:30.903Z,22.50
2018-08-31T12:24:00.647Z,21.80
2018-08-31T12:26:30.428Z,23.00
2018-08-31T12:28:58.146Z,21.00
2018-08-31T12:31:25.767Z,22.00
2018-08-31T12:33:53.658Z,20.50
2018-08-31T12:36:21.538Z,19.50
2018-08-31T12:38:49.143Z,19.20
2018-08-31T12:41:18.555Z,20.00
2018-08-31T12:43:46.588Z,19.60
2018-08-31T12:46:14.359Z,19.10
2018-08-31T12:48:42.821Z,18.90
2018-08-31T12:51:10.711Z,18.20
2018-08-31T12:53:38.903Z,18.80
2018-08-31T12:56:06.951Z,18.50
2018-08-31T12:58:34.704Z,18.10
2018-08-31T13:01:02.747Z,17.90
2018-08-31T13:03:31.938Z,18.30
2018-08-31T13:06:03.418Z,18.90
2018-08-31T13:08:32.149Z,17.20
2018-08-31T13:10:59.914Z,17.30
2018-08-31T13:13:28.287Z,17.60
2018-08-31T13:15:56.127Z,16.90
2018-08-31T13:18:24.251Z,17.70
2018-08-31T13:21:11.950Z,16.80
2018-08-31T13:23:46.853Z,16.90
2018-08-31T13:26:14.895Z,16.90
2018-08-31T13:28:43.086Z,17.60
2018-08-31T13:31:18.157Z,17.20
2018-08-31T13:33:45.894Z,18.00
2018-08-31T13:36:19.458Z,17.90
2018-08-31T13:38:47.746Z,17.80
2018-08-31T13:41:16.283Z,18.10
2018-08-31T13:43:44.422Z,18.10
2018-08-31T13:46:12.072Z,17.40
2018-08-31T13:48:39.701Z,18.00
2018-08-31T13:51:09.102Z,16.90
2018-08-31T13:53:40.422Z,17.80
2018-08-31T13:56:08.108Z,16.90
2018-08-31T13:58:36.075Z,17.10
2018-08-31T14:01:04.136Z,16.80
2018-08-31T14:03:32.010Z,16.90
2018-08-31T14:05:59.762Z,16.80
2018-08-31T14:08:28.750Z,16.90
2018-08-31T14:10:56.409Z,16.90
2018-08-31T14:13:24.327Z,16.40
2018-08-31T14:15:58.795Z,16.80
2018-08-31T14:18:27.753Z,16.80
2018-08-31T14:20:56.400Z,16.50
2018-08-31T14:23:24.722Z,16.70
2018-08-31T14:25:54.844Z,16.80
2018-08-31T14:28:23.960Z,16.20
2018-08-31T14:30:59.531Z,16.50
2018-08-31T14:33:27.179Z,16.50
2018-08-31T14:35:55.052Z,15.30
2018-08-31T14:38:28.575Z,15.10
2018-08-31T14:40:56.354Z,15.40
2018-08-31T14:43:24.431Z,14.70
2018-08-31T14:45:55.515Z,15.10
2018-08-31T14:48:23.163Z,16.10
2018-08-31T14:50:51.920Z,16.10
2018-08-31T14:53:19.894Z,16.30
2018-08-31T14:55:47.652Z,16.00
2018-08-31T14:58:15.740Z,16.30
2018-08-31T15:00:46.947Z,15.90
2018-08-31T15:03:14.720Z,16.50
2018-08-31T15:05:43.036Z,15.90
2018-08-31T15:08:11.932Z,15.80
2018-08-31T15:10:40.955Z,15.40
2018-08-31T15:13:10.922Z,15.20
2018-08-31T15:15:39.449Z,15.80
2018-08-31T15:18:07.297Z,15.50
2018-08-31T15:20:36.427Z,14.90
2018-08-31T15:23:09.544Z,14.90
2018-08-31T15:25:38.633Z,14.70
2018-08-31T15:28:06.693Z,15.10
2018-08-31T15:30:34.614Z,14.80
2018-08-31T15:33:03.351Z,15.00
2018-08-31T15:35:31.597Z,14.10
2018-08-31T15:38:01.264Z,14.60
2018-08-31T15:40:29.587Z,14.50
2018-08-31T15:42:57.774Z,14.50
2018-08-31T15:45:25.678Z,14.30
2018-08-31T15:47:53.391Z,14.70
2018-08-31T15:50:21.246Z,14.10
2018-08-31T15:52:49.006Z,14.60
2018-08-31T15:55:17.349Z,14.50
2018-08-31T15:57:45.578Z,14.80
2018-08-31T16:00:19.258Z,14.60
2018-08-31T16:02:46.966Z,14.50
2018-08-31T16:05:16.013Z,14.40
2018-08-31T16:07:46.113Z,14.50
2018-08-31T16:10:13.852Z,15.40
2018-08-31T16:12:44.400Z,14.80
2018-08-31T16:18:10.335Z,14.70
2018-08-31T16:20:38.179Z,14.90
2018-08-31T16:23:06.202Z,15.90
2018-08-31T16:25:33.966Z,15.30
2018-08-31T16:28:03.522Z,15.10
2018-08-31T16:30:33.000Z,14.90
2018-08-31T16:33:01.859Z,14.90
2018-08-31T16:35:29.946Z,15.10
2018-08-31T16:38:05.104Z,14.90
2018-08-31T16:40:33.103Z,15.00
2018-08-31T16:43:04.337Z,14.70
2018-08-31T16:45:32.265Z,14.90
2018-08-31T16:47:59.972Z,15.00
2018-08-31T16:50:32.040Z,14.90
2018-08-31T16:53:10.024Z,15.10
2018-08-31T16:55:50.502Z,15.10
2018-08-31T16:58:18.430Z,15.10
2018-08-31T17:00:46.350Z,15.70
2018-08-31T17:03:14.020Z,15.30
2018-08-31T17:05:41.880Z,15.60
2018-08-31T17:08:09.485Z,15.50
2018-08-31T17:10:37.377Z,15.30
2018-08-31T17:13:05.246Z,16.10
2018-08-31T17:15:33.149Z,15.50
2018-08-31T17:18:00.925Z,15.00
2018-08-31T17:20:29.190Z,14.80
2018-08-31T17:22:56.841Z,15.20
2018-08-31T17:25:25.012Z,15.10
2018-08-31T17:27:58.303Z,15.70
2018-08-31T17:30:26.923Z,15.80
2018-08-31T17:33:00.216Z,16.30
2018-08-31T17:35:33.795Z,15.80
2018-08-31T17:38:02.099Z,15.50
2018-08-31T17:40:31.115Z,16.30
2018-08-31T17:43:00.206Z,16.30
2018-08-31T17:45:28.774Z,16.40
2018-08-31T17:47:57.345Z,16.30
2018-08-31T17:50:25.056Z,16.40
2018-08-31T17:52:53.405Z,16.30
2018-08-31T17:55:21.117Z,16.30
2018-08-31T17:57:48.875Z,16.70
2018-08-31T18:00:16.550Z,16.80
2018-08-31T18:02:44.930Z,16.60
2018-08-31T18:05:13.735Z,16.80
2018-08-31T18:07:41.536Z,17.20
2018-08-31T18:10:10.460Z,17.40
2018-08-31T18:12:38.310Z,17.50
2018-08-31T18:15:06.101Z,17.40
2018-08-31T18:17:34.482Z,17.60
2018-08-31T18:20:02.654Z,17.70
2018-08-31T18:22:31.835Z,17.70
2018-08-31T18:25:01.339Z,17.70
2018-08-31T18:27:31.744Z,18.00
2018-08-31T18:30:02.701Z,18.00
2018-08-31T18:32:30.875Z,18.30
2018-08-31T18:34:58.558Z,18.20
2018-08-31T18:37:26.487Z,18.20
2018-08-31T18:39:54.475Z,18.80
2018-08-31T18:42:22.167Z,18.10
2018-08-31T18:44:51.246Z,18.00
2018-08-31T18:47:18.979Z,18.00
2018-08-31T18:49:48.426Z,18.20
2018-08-31T18:52:16.229Z,18.10
2018-08-31T18:54:43.912Z,18.20
2018-08-31T18:57:12.844Z,18.10
2018-08-31T18:59:40.656Z,18.70
2018-08-31T19:02:08.316Z,18.70
2018-08-31T19:04:36.033Z,18.60
2018-08-31T19:07:03.890Z,18.50
2018-08-31T19:09:31.436Z,18.90
2018-08-31T19:11:59.042Z,18.60
2018-08-31T19:14:32.699Z,18.60
2018-08-31T19:17:00.350Z,18.70
2018-08-31T19:19:27.967Z,18.90
2018-08-31T19:21:55.672Z,18.60
2018-08-31T19:24:23.366Z,18.60
2018-08-31T19:27:01.956Z,18.90
2018-08-31T19:29:29.772Z,18.70
2018-08-31T19:31:57.370Z,19.00
2018-08-31T19:34:24.982Z,19.00
2018-08-31T19:36:52.772Z,18.70
2018-08-31T19:39:20.713Z,19.20
2018-08-31T19:41:48.424Z,18.70
2018-08-31T19:44:16.120Z,18.70
2018-08-31T19:46:43.885Z,18.80
2018-08-31T19:49:11.494Z,18.80
2018-08-31T19:51:39.243Z,19.00
2018-08-31T19:54:07.249Z,19.10
2018-08-31T19:56:35.058Z,19.50
2018-08-31T19:59:02.939Z,18.80
2018-08-31T20:01:31.316Z,19.10
2018-08-31T20:03:59.156Z,18.90
2018-08-31T20:06:26.788Z,19.10
2018-08-31T20:08:56.484Z,19.10
2018-08-31T20:14:28.369Z,18.80
2018-08-31T20:16:56.446Z,19.50
2018-08-31T20:19:24.240Z,19.10
2018-08-31T20:21:51.906Z,19.20
2018-08-31T20:24:19.611Z,19.70
2018-08-31T20:26:48.254Z,19.00
2018-08-31T20:29:15.914Z,19.30
2018-08-31T20:31:44.089Z,19.20
2018-08-31T20:34:11.767Z,19.10
2018-08-31T20:36:39.443Z,19.60
2018-08-31T20:39:09.587Z,19.40
2018-08-31T20:41:38.234Z,19.30
2018-08-31T20:44:06.214Z,19.10
2018-08-31T20:46:34.052Z,19.30
2018-08-31T20:49:01.733Z,19.10
2018-08-31T20:51:29.388Z,19.10
2018-08-31T20:54:01.705Z,19.40
2018-08-31T20:56:29.560Z,19.30
2018-08-31T20:58:57.304Z,19.40
2018-08-31T21:01:26.583Z,19.30
2018-08-31T21:03:54.335Z,19.60
2018-08-31T21:06:22.053Z,19.10
2018-08-31T21:08:50.351Z,19.40
2018-08-31T21:11:18.013Z,19.30
2018-08-31T21:13:45.724Z,19.50
2018-08-31T21:16:13.564Z,19.40
2018-08-31T21:18:41.340Z,19.40
2018-08-31T21:21:09.241Z,19.50
2018-08-31T21:23:36.915Z,19.40
2018-08-31T21:26:05.790Z,19.20
2018-08-31T21:28:33.435Z,19.30
2018-08-31T21:31:01.253Z,19.40
2018-08-31T21:33:29.251Z,19.40
2018-08-31T21:35:57.140Z,19.90
2018-08-31T21:38:24.814Z,19.40
2018-08-31T21:41:15.185Z,19.60
2018-08-31T21:43:42.744Z,19.70
2018-08-31T21:46:10.505Z,19.70
2018-08-31T21:48:38.170Z,19.80
2018-08-31T21:51:05.907Z,19.70
2018-08-31T21:53:33.599Z,19.40
2018-08-31T21:56:01.230Z,19.60
2018-08-31T21:58:28.974Z,19.90
2018-08-31T22:01:02.480Z,20.00
2018-08-31T22:03:30.365Z,20.10
2018-08-31T22:05:58.040Z,20.30
2018-08-31T22:08:25.846Z,20.10
2018-08-31T22:10:53.545Z,20.10
2018-08-31T22:13:21.146Z,20.10
2018-08-31T22:15:48.820Z,20.40
2018-08-31T22:18:16.481Z,20.30
2018-08-31T22:20:44.117Z,20.40
2018-08-31T22:23:13.823Z,20.30
2018-08-31T22:25:41.456Z,20.40
2018-08-31T22:28:09.896Z,20.40
2018-08-31T22:30:37.680Z,20.50
2018-08-31T22:33:05.349Z,20.50
2018-08-31T22:35:33.084Z,21.00
2018-08-31T22:38:00.823Z,20.70
2018-08-31T22:40:28.658Z,20.50
2018-08-31T22:42:56.352Z,20.70
2018-08-31T22:45:24.151Z,20.70
2018-08-31T22:47:51.961Z,20.90
2018-08-31T22:50:19.719Z,20.90
2018-08-31T22:52:47.435Z,21.10
2018-08-31T22:55:14.998Z,20.90
2018-08-31T22:57:42.779Z,21.10
2018-08-31T23:00:10.500Z,20.90
2018-08-31T23:02:38.083Z,21.30
2018-08-31T23:05:05.963Z,21.40
2018-08-31T23:07:39.098Z,21.50
2018-08-31T23:10:07.059Z,21.30
2018-08-31T23:12:34.715Z,21.60
2018-08-31T23:15:02.543Z,21.90
2018-08-31T23:17:30.343Z,21.80
2018-08-31T23:19:58.730Z,21.50
2018-08-31T23:22:28.495Z,22.10
2018-08-31T23:24:57.375Z,21.50
2018-08-31T23:27:25.190Z,21.80
2018-08-31T23:29:53.018Z,21.90
2018-08-31T23:32:20.610Z,22.10
2018-08-31T23:34:48.454Z,22.60
2018-08-31T23:37:16.039Z,22.10
2018-08-31T23:39:44.796Z,22.50
2018-08-31T23:42:12.483Z,22.60
2018-08-31T23:44:40.135Z,22.60
2018-08-31T23:47:08.096Z,22.50
2018-08-31T23:49:35.929Z,22.80
2018-08-31T23:52:03.556Z,22.70
2018-08-31T23:54:31.193Z,22.80
2018-08-31T23:56:58.844Z,22.80
2018-08-31T23:59:26.527Z,22.70
